createdAt,value
2019-05-07T00:01:04.214Z,7.93
2019-05-07T00:04:08.931Z,7.97
2019-05-07T00:07:13.895Z,8.00
2019-05-07T00:10:18.423Z,8.43
2019-05-07T00:13:23.426Z,8.60
2019-05-07T00:16:27.824Z,8.33
2019-05-07T00:19:32.518Z,8.47
2019-05-07T00:22:37.210Z,7.70
2019-05-07T00:25:42.382Z,7.50
2019-05-07T00:28:46.839Z,7.63
2019-05-07T00:31:52.066Z,7.43
2019-05-07T00:35:02.520Z,6.97
2019-05-07T00:38:09.914Z,7.60
2019-05-07T00:41:29.067Z,7.57
2019-05-07T00:44:35.153Z,7.23
2019-05-07T00:47:39.537Z,7.07
2019-05-07T00:50:45.413Z,8.00
2019-05-07T00:53:51.922Z,6.97
2019-05-07T00:56:55.787Z,7.93
2019-05-07T01:00:02.175Z,7.80
2019-05-07T01:03:06.145Z,7.90
2019-05-07T01:06:12.739Z,7.40
2019-05-07T01:09:16.917Z,7.40
2019-05-07T01:12:22.230Z,7.63
2019-05-07T01:15:31.046Z,7.10
2019-05-07T01:18:33.185Z,6.97
2019-05-07T01:21:37.463Z,7.73
2019-05-07T01:24:42.950Z,6.87
2019-05-07T01:27:47.409Z,7.40
2019-05-07T01:30:52.845Z,6.90
2019-05-07T01:34:16.414Z,6.73
2019-05-07T01:37:22.934Z,6.87
2019-05-07T01:40:26.799Z,6.73
2019-05-07T01:43:32.099Z,6.77
2019-05-07T01:46:36.506Z,7.03
2019-05-07T01:49:42.178Z,6.73
2019-05-07T01:52:46.587Z,6.53
2019-05-07T01:55:52.401Z,6.40
2019-05-07T01:58:56.834Z,6.60
2019-05-07T02:02:06.104Z,7.43
2019-05-07T02:05:27.588Z,7.17
2019-05-07T02:08:53.715Z,6.50
2019-05-07T02:12:15.874Z,6.77
2019-05-07T02:15:22.504Z,7.17
2019-05-07T02:18:26.291Z,6.80
2019-05-07T02:21:32.752Z,6.37
2019-05-07T02:24:36.583Z,6.93
2019-05-07T02:27:42.076Z,7.27
2019-05-07T02:30:46.571Z,6.80
2019-05-07T02:33:53.872Z,5.93
2019-05-07T02:36:56.983Z,7.23
2019-05-07T02:40:33.653Z,6.87
2019-05-07T02:43:36.159Z,6.80
2019-05-07T02:46:54.561Z,7.17
2019-05-07T02:50:03.359Z,6.83
2019-05-07T02:53:27.338Z,6.40
2019-05-07T02:56:33.250Z,7.10
2019-05-07T02:59:37.995Z,6.70
2019-05-07T03:02:43.723Z,6.87
2019-05-07T03:05:48.352Z,7.40
2019-05-07T03:08:53.549Z,7.30
2019-05-07T03:11:57.996Z,7.30
2019-05-07T03:15:04.493Z,7.10
2019-05-07T03:18:08.591Z,7.03
2019-05-07T03:21:15.907Z,5.87
2019-05-07T03:24:26.175Z,6.87
2019-05-07T03:27:33.747Z,6.63
2019-05-07T03:30:45.670Z,6.50
2019-05-07T03:34:06.833Z,6.33
2019-05-07T03:37:13.549Z,6.23
2019-05-07T03:40:18.108Z,6.17
2019-05-07T03:43:24.068Z,6.60
2019-05-07T03:46:28.402Z,5.47
2019-05-07T03:49:34.330Z,5.73
2019-05-07T03:52:38.859Z,6.13
2019-05-07T03:55:44.744Z,6.40
2019-05-07T03:58:49.354Z,6.57
2019-05-07T04:01:53.959Z,6.13
2019-05-07T04:04:58.288Z,6.47
2019-05-07T04:08:03.496Z,6.23
2019-05-07T04:11:07.941Z,6.07
2019-05-07T04:14:13.652Z,5.80
2019-05-07T04:17:23.333Z,6.10
2019-05-07T04:20:24.191Z,6.43
2019-05-07T04:23:28.624Z,4.93
2019-05-07T04:26:42.783Z,6.13
2019-05-07T04:29:45.652Z,6.53
2019-05-07T04:32:53.001Z,5.80
2019-05-07T04:36:04.121Z,6.47
2019-05-07T04:39:09.008Z,6.60
2019-05-07T04:42:13.464Z,5.50
2019-05-07T04:45:17.833Z,5.70
2019-05-07T04:48:23.252Z,5.20
2019-05-07T04:51:34.941Z,5.97
2019-05-07T04:54:39.298Z,5.43
2019-05-07T04:57:44.005Z,5.30
2019-05-07T05:00:48.528Z,5.63
2019-05-07T05:03:54.053Z,5.60
2019-05-07T05:06:58.677Z,5.77
2019-05-07T05:10:03.202Z,6.03
2019-05-07T05:13:07.625Z,6.77
2019-05-07T05:16:23.893Z,6.27
2019-05-07T05:19:28.315Z,6.13
2019-05-07T05:22:42.381Z,6.20
2019-05-07T05:25:46.520Z,6.13
2019-05-07T05:28:52.541Z,6.13
2019-05-07T05:31:57.051Z,6.07
2019-05-07T05:35:08.515Z,6.07
2019-05-07T05:38:12.962Z,5.20
2019-05-07T05:41:17.295Z,5.53
2019-05-07T05:44:32.464Z,5.90
2019-05-07T05:47:36.987Z,5.70
2019-05-07T05:51:02.697Z,5.73
2019-05-07T05:54:29.311Z,6.33
2019-05-07T05:57:52.664Z,5.67
2019-05-07T06:01:12.952Z,5.20
2019-05-07T06:04:27.386Z,5.43
2019-05-07T06:07:36.549Z,4.70
2019-05-07T06:10:51.931Z,5.03
2019-05-07T06:14:18.572Z,5.47
2019-05-07T06:17:44.669Z,5.90
2019-05-07T06:21:02.900Z,5.70
2019-05-07T06:24:08.501Z,5.13
2019-05-07T06:27:13.183Z,5.40
2019-05-07T06:30:18.451Z,5.20
2019-05-07T06:33:23.224Z,5.10
2019-05-07T06:36:28.162Z,4.77
2019-05-07T06:39:39.112Z,5.03
2019-05-07T06:43:08.225Z,4.13
2019-05-07T06:46:12.688Z,4.83
2019-05-07T06:49:16.990Z,4.80
2019-05-07T06:52:22.406Z,4.57
2019-05-07T06:55:26.717Z,5.50
2019-05-07T06:58:55.962Z,5.33
2019-05-07T07:02:17.879Z,5.17
2019-05-07T07:05:42.435Z,5.13
2019-05-07T07:08:53.735Z,4.77
2019-05-07T07:12:02.086Z,4.27
2019-05-07T07:15:06.782Z,4.67
2019-05-07T07:18:12.254Z,4.57
2019-05-07T07:21:16.770Z,4.27
2019-05-07T07:24:22.220Z,4.60
2019-05-07T07:27:26.748Z,4.23
2019-05-07T07:30:55.955Z,4.40
2019-05-07T07:34:02.310Z,4.63
2019-05-07T07:37:16.837Z,4.47
2019-05-07T07:40:49.805Z,4.30
2019-05-07T07:43:54.566Z,4.00
2019-05-07T07:46:59.675Z,3.80
2019-05-07T07:50:04.967Z,3.87
2019-05-07T07:53:09.427Z,4.03
2019-05-07T07:56:47.877Z,3.37
2019-05-07T08:00:07.259Z,3.60
2019-05-07T08:03:13.384Z,4.03
2019-05-07T08:06:18.020Z,3.97
2019-05-07T08:09:25.519Z,3.90
2019-05-07T08:12:28.345Z,3.90
2019-05-07T08:15:33.176Z,4.07
2019-05-07T08:18:39.679Z,3.70
2019-05-07T08:21:44.154Z,4.43
2019-05-07T08:24:48.435Z,4.60
2019-05-07T08:27:52.756Z,4.27
2019-05-07T08:31:07.763Z,4.70
2019-05-07T08:34:26.106Z,4.23
2019-05-07T08:37:32.044Z,3.80
2019-05-07T08:40:36.854Z,3.37
2019-05-07T08:43:42.760Z,4.33
2019-05-07T08:47:05.461Z,4.13
2019-05-07T08:50:11.725Z,4.30
2019-05-07T08:53:15.888Z,3.97
2019-05-07T08:56:22.362Z,3.70
2019-05-07T08:59:26.772Z,3.33
2019-05-07T09:02:32.623Z,3.23
2019-05-07T09:05:37.205Z,4.10
2019-05-07T09:08:43.660Z,3.87
2019-05-07T09:11:47.802Z,4.00
2019-05-07T09:14:52.946Z,3.53
2019-05-07T09:17:59.309Z,3.93
2019-05-07T09:21:03.690Z,3.23
2019-05-07T09:24:08.684Z,3.63
2019-05-07T09:27:37.679Z,3.47
2019-05-07T09:30:52.827Z,3.10
2019-05-07T09:33:57.264Z,3.40
2019-05-07T09:37:03.298Z,2.90
2019-05-07T09:40:07.608Z,3.30
2019-05-07T09:43:12.105Z,2.83
2019-05-07T09:46:16.558Z,3.13
2019-05-07T09:49:22.251Z,2.47
2019-05-07T09:52:26.788Z,2.33
2019-05-07T09:55:32.570Z,2.50
2019-05-07T09:58:39.142Z,2.30
2019-05-07T10:01:43.269Z,2.17
2019-05-07T10:04:47.683Z,2.00
2019-05-07T10:07:52.659Z,2.53
2019-05-07T10:10:57.052Z,1.90
2019-05-07T10:14:05.286Z,2.50
2019-05-07T10:17:18.311Z,2.10
2019-05-07T10:20:23.326Z,2.23
2019-05-07T10:23:27.680Z,2.13
2019-05-07T10:26:32.278Z,2.70
2019-05-07T10:29:37.307Z,2.60
2019-05-07T10:32:42.156Z,2.60
2019-05-07T10:35:46.745Z,1.90
2019-05-07T10:38:52.041Z,2.17
2019-05-07T10:42:15.523Z,2.17
2019-05-07T10:45:42.223Z,1.97
2019-05-07T10:48:53.672Z,2.27
2019-05-07T10:51:58.096Z,1.80
2019-05-07T10:55:02.959Z,2.00
2019-05-07T10:58:07.282Z,2.10
2019-05-07T11:01:13.784Z,2.03
2019-05-07T11:04:18.108Z,1.90
2019-05-07T11:07:22.486Z,1.90
2019-05-07T11:10:26.917Z,2.30
2019-05-07T11:13:31.202Z,2.13
2019-05-07T11:16:43.080Z,2.10
2019-05-07T11:19:47.447Z,2.23
2019-05-07T11:22:52.331Z,2.23
2019-05-07T11:25:57.028Z,2.13
2019-05-07T11:29:02.403Z,2.33
2019-05-07T11:32:06.939Z,1.90
2019-05-07T11:35:14.624Z,2.00
2019-05-07T11:38:21.596Z,1.90
2019-05-07T11:41:32.977Z,2.10
2019-05-07T11:44:37.267Z,2.60
2019-05-07T11:47:41.651Z,2.43
2019-05-07T11:51:15.237Z,2.90
2019-05-07T11:54:19.782Z,2.40
2019-05-07T11:57:24.459Z,2.60
2019-05-07T12:00:33.532Z,2.67
2019-05-07T12:03:37.881Z,2.57
2019-05-07T12:06:42.275Z,2.80
2019-05-07T12:09:49.258Z,2.77
2019-05-07T12:12:53.642Z,2.40
2019-05-07T12:15:57.927Z,2.20
2019-05-07T12:19:02.440Z,2.07
2019-05-07T12:22:07.163Z,2.20
2019-05-07T12:25:12.128Z,2.00
2019-05-07T12:28:16.539Z,1.90
2019-05-07T12:31:38.768Z,1.77
2019-05-07T12:34:53.080Z,2.27
2019-05-07T12:37:58.662Z,2.30
2019-05-07T12:41:22.155Z,1.57
2019-05-07T12:44:26.654Z,2.30
2019-05-07T12:47:31.107Z,1.90
2019-05-07T12:50:35.544Z,1.90
2019-05-07T12:53:44.794Z,2.40
2019-05-07T12:56:49.594Z,2.27
2019-05-07T12:59:57.489Z,2.23
2019-05-07T13:03:33.317Z,3.00
2019-05-07T13:06:43.995Z,3.30
2019-05-07T13:09:48.410Z,3.50
2019-05-07T13:12:52.858Z,3.00
2019-05-07T13:15:59.282Z,3.30
2019-05-07T13:19:03.798Z,3.03
2019-05-07T13:22:08.335Z,3.00
2019-05-07T13:25:13.243Z,4.83
2019-05-07T13:28:19.445Z,3.20
2019-05-07T13:31:27.232Z,3.00
2019-05-07T13:34:33.817Z,3.20
2019-05-07T13:37:41.990Z,3.13
2019-05-07T13:41:05.517Z,2.67
2019-05-07T13:44:29.413Z,3.80
2019-05-07T13:47:39.581Z,3.93
2019-05-07T13:50:44.221Z,4.17
2019-05-07T13:53:49.472Z,4.67
2019-05-07T13:56:53.862Z,3.93
2019-05-07T13:59:58.559Z,3.90
2019-05-07T14:03:03.346Z,3.77
2019-05-07T14:06:08.113Z,3.83
2019-05-07T14:09:17.678Z,3.80
2019-05-07T14:12:23.067Z,4.20
2019-05-07T14:15:27.644Z,4.07
2019-05-07T14:18:32.678Z,3.97
2019-05-07T14:21:39.181Z,4.20
2019-05-07T14:24:43.473Z,3.77
2019-05-07T14:27:47.869Z,3.47
2019-05-07T14:30:52.611Z,3.03
2019-05-07T14:34:02.889Z,3.40
2019-05-07T14:37:22.100Z,3.57
2019-05-07T14:40:26.594Z,3.70
2019-05-07T14:43:48.636Z,3.30
2019-05-07T14:46:54.449Z,3.10
2019-05-07T14:49:59.063Z,2.97
2019-05-07T14:53:03.422Z,2.67
2019-05-07T14:56:07.900Z,2.57
2019-05-07T14:59:12.753Z,2.20
2019-05-07T15:02:17.635Z,2.27
2019-05-07T15:05:23.631Z,2.40
2019-05-07T15:08:28.165Z,2.13
2019-05-07T15:11:32.751Z,2.70
2019-05-07T15:14:37.509Z,2.53
2019-05-07T15:18:06.966Z,2.07
2019-05-07T15:21:12.299Z,2.47
2019-05-07T15:24:16.975Z,2.87
2019-05-07T15:27:22.772Z,2.90
2019-05-07T15:30:32.449Z,2.87
2019-05-07T15:33:38.313Z,2.70
2019-05-07T15:36:46.966Z,3.37
2019-05-07T15:39:52.699Z,3.30
2019-05-07T15:42:58.790Z,3.40
2019-05-07T15:46:04.075Z,3.77
2019-05-07T15:49:08.973Z,3.43
2019-05-07T15:52:19.369Z,3.40
2019-05-07T15:55:25.052Z,3.80
2019-05-07T15:58:33.136Z,3.80
2019-05-07T16:01:38.135Z,5.13
2019-05-07T16:04:43.425Z,5.00
2019-05-07T16:07:49.678Z,5.27
2019-05-07T16:10:55.069Z,5.17
2019-05-07T16:14:17.511Z,4.57
2019-05-07T16:17:35.376Z,4.20
2019-05-07T16:20:42.846Z,4.63
2019-05-07T16:23:47.473Z,4.57
2019-05-07T16:26:53.295Z,4.43
2019-05-07T16:29:58.290Z,4.03
2019-05-07T16:33:03.992Z,4.00
2019-05-07T16:36:09.016Z,4.20
2019-05-07T16:39:14.775Z,4.17
2019-05-07T16:42:21.840Z,3.93
2019-05-07T16:45:27.285Z,3.60
2019-05-07T16:48:32.835Z,3.70
2019-05-07T16:51:37.914Z,3.53
2019-05-07T16:54:45.141Z,3.60
2019-05-07T16:58:01.855Z,3.90
2019-05-07T17:01:09.015Z,3.77
2019-05-07T17:04:14.203Z,3.50
2019-05-07T17:07:22.083Z,3.23
2019-05-07T17:10:27.254Z,3.73
2019-05-07T17:13:32.016Z,4.33
2019-05-07T17:16:37.649Z,3.70
2019-05-07T17:19:42.616Z,3.63
2019-05-07T17:22:47.720Z,4.20
2019-05-07T17:25:52.702Z,3.97
2019-05-07T17:28:57.426Z,3.97
2019-05-07T17:32:02.445Z,3.63
2019-05-07T17:35:07.081Z,4.30
2019-05-07T17:38:12.862Z,3.80
2019-05-07T17:41:23.698Z,4.20
2019-05-07T17:44:24.203Z,4.00
2019-05-07T17:47:28.939Z,4.17
2019-05-07T17:50:42.560Z,4.80
2019-05-07T17:53:57.650Z,4.43
2019-05-07T17:56:53.890Z,4.73
2019-05-07T18:00:02.202Z,4.97
2019-05-07T18:03:26.581Z,4.57
2019-05-07T18:06:32.108Z,5.30
2019-05-07T18:09:37.657Z,4.73
2019-05-07T18:12:42.608Z,5.17
2019-05-07T18:15:48.049Z,5.77
2019-05-07T18:18:53.768Z,5.13
2019-05-07T18:21:58.418Z,5.00
2019-05-07T18:25:03.344Z,5.50
2019-05-07T18:28:08.727Z,6.03
2019-05-07T18:31:15.926Z,6.73
2019-05-07T18:34:20.564Z,6.60
2019-05-07T18:37:25.052Z,7.43
2019-05-07T18:40:29.761Z,7.17
2019-05-07T18:43:35.335Z,8.20
2019-05-07T18:46:45.082Z,10.73
2019-05-07T18:49:51.862Z,12.67
2019-05-07T18:52:57.119Z,14.53
2019-05-07T18:56:03.135Z,15.30
2019-05-07T18:59:07.667Z,17.33
2019-05-07T19:02:12.366Z,20.13
2019-05-07T19:05:19.443Z,22.47
2019-05-07T19:08:24.224Z,28.00
2019-05-07T19:11:29.582Z,28.13
2019-05-07T19:14:34.407Z,28.10
2019-05-07T19:17:39.178Z,27.80
2019-05-07T19:20:44.905Z,27.07
2019-05-07T19:23:49.477Z,25.00
2019-05-07T19:26:54.905Z,23.50
2019-05-07T19:29:59.558Z,22.97
2019-05-07T19:33:05.069Z,22.27
2019-05-07T19:36:10.977Z,23.80
2019-05-07T19:39:16.742Z,24.67
2019-05-07T19:42:21.704Z,26.13
2019-05-07T19:45:27.259Z,26.80
2019-05-07T19:48:32.431Z,26.63
2019-05-07T19:51:37.666Z,26.53
2019-05-07T19:54:57.980Z,27.00
2019-05-07T19:57:56.726Z,26.20
2019-05-07T20:01:03.823Z,24.67
2019-05-07T20:04:09.320Z,23.27
2019-05-07T20:07:14.481Z,22.97
2019-05-07T20:10:28.597Z,22.80
2019-05-07T20:13:33.962Z,24.30
2019-05-07T20:16:42.051Z,24.13
2019-05-07T20:19:46.842Z,24.10
2019-05-07T20:22:51.882Z,25.17
2019-05-07T20:25:56.851Z,25.00
2019-05-07T20:29:03.064Z,25.60
2019-05-07T20:32:08.009Z,26.97
2019-05-07T20:35:13.469Z,27.07
2019-05-07T20:38:18.151Z,28.70
2019-05-07T20:41:23.457Z,28.37
2019-05-07T20:44:28.222Z,28.60
2019-05-07T20:47:34.464Z,31.63
2019-05-07T20:50:38.938Z,30.77
2019-05-07T20:54:23.094Z,32.23
2019-05-07T20:57:42.661Z,32.60
2019-05-07T21:00:47.414Z,32.23
2019-05-07T21:03:52.695Z,33.27
2019-05-07T21:06:57.384Z,31.50
2019-05-07T21:10:02.155Z,32.20
2019-05-07T21:13:06.831Z,31.97
2019-05-07T21:16:12.657Z,30.90
2019-05-07T21:19:17.239Z,31.23
2019-05-07T21:22:22.693Z,31.90
2019-05-07T21:25:27.325Z,31.23
2019-05-07T21:28:32.506Z,30.53
2019-05-07T21:31:36.914Z,29.13
2019-05-07T21:34:42.143Z,30.43
2019-05-07T21:37:46.956Z,29.67
2019-05-07T21:40:51.645Z,29.27
2019-05-07T21:43:56.044Z,30.07
2019-05-07T21:47:04.027Z,28.93
2019-05-07T21:50:09.110Z,28.83
2019-05-07T21:53:22.731Z,30.53
2019-05-07T21:56:44.189Z,29.23
2019-05-07T21:59:48.851Z,28.17
2019-05-07T22:02:53.934Z,29.53
2019-05-07T22:05:58.475Z,27.93
2019-05-07T22:09:02.974Z,29.97
2019-05-07T22:12:07.445Z,28.13
2019-05-07T22:15:13.133Z,31.07
2019-05-07T22:18:17.606Z,29.83
2019-05-07T22:21:24.176Z,29.93
2019-05-07T22:24:28.560Z,30.30
2019-05-07T22:27:32.917Z,33.17
2019-05-07T22:30:52.786Z,30.50
2019-05-07T22:34:16.259Z,30.03
2019-05-07T22:37:21.967Z,31.50
2019-05-07T22:40:26.442Z,28.80
2019-05-07T22:43:31.855Z,31.23
2019-05-07T22:46:36.395Z,32.60
2019-05-07T22:49:42.000Z,30.93
2019-05-07T22:52:46.788Z,29.43
2019-05-07T22:55:52.553Z,33.67
2019-05-07T22:58:57.689Z,31.10
2019-05-07T23:02:03.048Z,33.70
2019-05-07T23:05:07.654Z,33.07
2019-05-07T23:08:12.792Z,32.40
2019-05-07T23:11:17.267Z,35.63
2019-05-07T23:14:22.624Z,34.67
2019-05-07T23:17:27.236Z,33.77
2019-05-07T23:20:32.056Z,35.33
2019-05-07T23:23:36.528Z,34.97
2019-05-07T23:26:48.176Z,35.60
2019-05-07T23:29:46.783Z,34.47
2019-05-07T23:32:52.839Z,33.60
2019-05-07T23:35:57.303Z,34.07
2019-05-07T23:39:02.578Z,33.80
2019-05-07T23:42:20.466Z,34.23
2019-05-07T23:45:24.837Z,35.43
2019-05-07T23:48:29.211Z,34.87
2019-05-07T23:51:33.605Z,36.03
2019-05-07T23:54:37.880Z,36.13
2019-05-07T23:57:43.080Z,35.27
